sensor_id;sensor_type;location;lat;lon;timestamp;P1;durP1;ratioP1;P2;durP2;ratioP2
75195;SDS011;63773;42.282;22.782;2023-04-15T00:01:00;12.35;;;5.53;;
75195;SDS011;63773;42.282;22.782;2023-04-15T00:03:25;10.30;;;4.82;;
75195;SDS011;63773;42.282;22.782;2023-04-15T00:05:52;9.55;;;5.53;;
75195;SDS011;63773;42.282;22.782;2023-04-15T00:08:17;8.82;;;5.13;;
75195;SDS011;63773;42.282;22.782;2023-04-15T00:10:44;7.63;;;4.70;;
75195;SDS011;63773;42.282;22.782;2023-04-15T00:13:10;6.75;;;4.30;;
75195;SDS011;63773;42.282;22.782;2023-04-15T00:15:36;6.80;;;3.95;;
75195;SDS011;63773;42.282;22.782;2023-04-15T00:18:22;17.75;;;8.18;;
75195;SDS011;63773;42.282;22.782;2023-04-15T00:20:48;8.13;;;4.57;;
75195;SDS011;63773;42.282;22.782;2023-04-15T00:23:14;8.02;;;4.80;;
75195;SDS011;63773;42.282;22.782;2023-04-15T00:25:39;7.88;;;4.18;;
75195;SDS011;63773;42.282;22.782;2023-04-15T00:28:05;8.27;;;3.72;;
75195;SDS011;63773;42.282;22.782;2023-04-15T00:30:30;7.53;;;4.95;;
75195;SDS011;63773;42.282;22.782;2023-04-15T00:32:55;9.65;;;4.07;;
75195;SDS011;63773;42.282;22.782;2023-04-15T00:35:21;8.15;;;3.88;;
75195;SDS011;63773;42.282;22.782;2023-04-15T00:37:47;9.13;;;4.43;;
75195;SDS011;63773;42.282;22.782;2023-04-15T00:40:13;11.85;;;4.40;;
75195;SDS011;63773;42.282;22.782;2023-04-15T00:42:51;8.15;;;4.53;;
75195;SDS011;63773;42.282;22.782;2023-04-15T00:45:16;7.03;;;4.22;;
75195;SDS011;63773;42.282;22.782;2023-04-15T00:47:42;6.07;;;3.67;;
75195;SDS011;63773;42.282;22.782;2023-04-15T00:50:08;8.10;;;4.28;;
75195;SDS011;63773;42.282;22.782;2023-04-15T00:52:35;7.65;;;4.32;;
75195;SDS011;63773;42.282;22.782;2023-04-15T00:55:01;7.22;;;4.00;;
75195;SDS011;63773;42.282;22.782;2023-04-15T00:57:28;11.82;;;5.05;;
75195;SDS011;63773;42.282;22.782;2023-04-15T00:59:54;11.00;;;5.75;;
75195;SDS011;63773;42.282;22.782;2023-04-15T01:02:20;10.63;;;5.00;;
75195;SDS011;63773;42.282;22.782;2023-04-15T01:04:46;11.25;;;5.18;;
75195;SDS011;63773;42.282;22.782;2023-04-15T01:07:12;51.35;;;22.75;;
75195;SDS011;63773;42.282;22.782;2023-04-15T01:09:37;18.20;;;10.02;;
75195;SDS011;63773;42.282;22.782;2023-04-15T01:12:03;7.22;;;4.43;;
75195;SDS011;63773;42.282;22.782;2023-04-15T01:14:29;7.00;;;3.80;;
75195;SDS011;63773;42.282;22.782;2023-04-15T01:16:54;13.05;;;7.25;;
75195;SDS011;63773;42.282;22.782;2023-04-15T01:19:20;10.57;;;4.72;;
75195;SDS011;63773;42.282;22.782;2023-04-15T01:21:46;8.07;;;4.28;;
75195;SDS011;63773;42.282;22.782;2023-04-15T01:24:11;11.75;;;6.90;;
75195;SDS011;63773;42.282;22.782;2023-04-15T01:26:40;7.70;;;5.18;;
75195;SDS011;63773;42.282;22.782;2023-04-15T01:29:06;7.72;;;3.97;;
75195;SDS011;63773;42.282;22.782;2023-04-15T01:31:32;5.43;;;3.17;;
75195;SDS011;63773;42.282;22.782;2023-04-15T01:33:58;7.50;;;3.92;;
75195;SDS011;63773;42.282;22.782;2023-04-15T01:36:23;6.35;;;3.60;;
75195;SDS011;63773;42.282;22.782;2023-04-15T01:38:49;8.27;;;3.65;;
75195;SDS011;63773;42.282;22.782;2023-04-15T01:41:15;8.35;;;3.80;;
75195;SDS011;63773;42.282;22.782;2023-04-15T01:43:41;7.55;;;4.25;;
75195;SDS011;63773;42.282;22.782;2023-04-15T01:46:06;7.10;;;4.07;;
75195;SDS011;63773;42.282;22.782;2023-04-15T01:48:32;7.20;;;3.85;;
75195;SDS011;63773;42.282;22.782;2023-04-15T01:50:58;7.45;;;3.50;;
75195;SDS011;63773;42.282;22.782;2023-04-15T01:53:24;6.13;;;2.75;;
75195;SDS011;63773;42.282;22.782;2023-04-15T01:55:50;6.75;;;3.88;;
75195;SDS011;63773;42.282;22.782;2023-04-15T01:58:16;6.78;;;4.15;;
75195;SDS011;63773;42.282;22.782;2023-04-15T02:00:42;7.55;;;2.90;;
75195;SDS011;63773;42.282;22.782;2023-04-15T02:03:07;7.15;;;3.33;;
75195;SDS011;63773;42.282;22.782;2023-04-15T02:05:33;5.10;;;3.35;;
75195;SDS011;63773;42.282;22.782;2023-04-15T02:07:59;7.07;;;3.72;;
75195;SDS011;63773;42.282;22.782;2023-04-15T02:10:25;4.82;;;2.88;;
75195;SDS011;63773;42.282;22.782;2023-04-15T02:12:51;6.45;;;3.10;;
75195;SDS011;63773;42.282;22.782;2023-04-15T02:15:16;5.43;;;3.25;;
75195;SDS011;63773;42.282;22.782;2023-04-15T02:17:42;6.70;;;3.22;;
75195;SDS011;63773;42.282;22.782;2023-04-15T02:20:10;7.05;;;3.22;;
75195;SDS011;63773;42.282;22.782;2023-04-15T02:22:36;6.50;;;3.58;;
75195;SDS011;63773;42.282;22.782;2023-04-15T02:25:01;7.85;;;3.47;;
75195;SDS011;63773;42.282;22.782;2023-04-15T02:27:27;4.85;;;3.05;;
75195;SDS011;63773;42.282;22.782;2023-04-15T02:29:53;6.43;;;3.42;;
75195;SDS011;63773;42.282;22.782;2023-04-15T02:32:18;6.70;;;3.60;;
75195;SDS011;63773;42.282;22.782;2023-04-15T02:34:44;7.93;;;3.85;;
75195;SDS011;63773;42.282;22.782;2023-04-15T02:37:11;8.60;;;3.92;;
75195;SDS011;63773;42.282;22.782;2023-04-15T02:39:37;8.57;;;4.63;;
75195;SDS011;63773;42.282;22.782;2023-04-15T02:42:03;8.65;;;3.95;;
75195;SDS011;63773;42.282;22.782;2023-04-15T02:44:30;7.32;;;4.65;;
75195;SDS011;63773;42.282;22.782;2023-04-15T02:46:56;9.32;;;4.85;;
75195;SDS011;63773;42.282;22.782;2023-04-15T02:49:23;7.53;;;4.35;;
75195;SDS011;63773;42.282;22.782;2023-04-15T02:51:49;7.18;;;3.80;;
75195;SDS011;63773;42.282;22.782;2023-04-15T02:54:18;7.90;;;3.50;;
75195;SDS011;63773;42.282;22.782;2023-04-15T02:56:44;12.65;;;5.88;;
75195;SDS011;63773;42.282;22.782;2023-04-15T02:59:10;11.38;;;6.88;;
75195;SDS011;63773;42.282;22.782;2023-04-15T03:01:36;13.23;;;5.60;;
75195;SDS011;63773;42.282;22.782;2023-04-15T03:04:02;9.38;;;4.82;;
75195;SDS011;63773;42.282;22.782;2023-04-15T03:06:27;12.85;;;6.78;;
75195;SDS011;63773;42.282;22.782;2023-04-15T03:08:53;6.97;;;3.72;;
75195;SDS011;63773;42.282;22.782;2023-04-15T03:11:18;8.88;;;4.45;;
75195;SDS011;63773;42.282;22.782;2023-04-15T03:13:44;6.90;;;4.18;;
75195;SDS011;63773;42.282;22.782;2023-04-15T03:16:09;7.00;;;3.63;;
75195;SDS011;63773;42.282;22.782;2023-04-15T03:18:35;9.70;;;4.28;;
75195;SDS011;63773;42.282;22.782;2023-04-15T03:21:00;8.38;;;3.67;;
75195;SDS011;63773;42.282;22.782;2023-04-15T03:23:26;7.00;;;3.95;;
75195;SDS011;63773;42.282;22.782;2023-04-15T03:25:52;9.27;;;3.83;;
75195;SDS011;63773;42.282;22.782;2023-04-15T03:28:20;6.68;;;3.63;;
75195;SDS011;63773;42.282;22.782;2023-04-15T03:30:45;8.30;;;4.45;;
75195;SDS011;63773;42.282;22.782;2023-04-15T03:33:10;9.57;;;4.68;;
75195;SDS011;63773;42.282;22.782;2023-04-15T03:35:36;8.85;;;3.42;;
75195;SDS011;63773;42.282;22.782;2023-04-15T03:38:02;7.85;;;4.63;;
75195;SDS011;63773;42.282;22.782;2023-04-15T03:40:27;8.55;;;4.63;;
75195;SDS011;63773;42.282;22.782;2023-04-15T03:42:52;8.50;;;3.90;;
75195;SDS011;63773;42.282;22.782;2023-04-15T03:45:18;11.40;;;5.05;;
75195;SDS011;63773;42.282;22.782;2023-04-15T03:47:43;8.10;;;5.20;;
75195;SDS011;63773;42.282;22.782;2023-04-15T03:50:09;8.40;;;4.53;;
75195;SDS011;63773;42.282;22.782;2023-04-15T03:52:35;7.65;;;4.22;;
75195;SDS011;63773;42.282;22.782;2023-04-15T03:55:00;10.45;;;5.30;;
75195;SDS011;63773;42.282;22.782;2023-04-15T03:57:26;8.35;;;5.50;;
75195;SDS011;63773;42.282;22.782;2023-04-15T03:59:51;8.50;;;5.53;;
75195;SDS011;63773;42.282;22.782;2023-04-15T04:02:17;14.98;;;9.43;;
75195;SDS011;63773;42.282;22.782;2023-04-15T04:04:42;27.25;;;15.95;;
75195;SDS011;63773;42.282;22.782;2023-04-15T04:07:08;14.07;;;7.28;;
75195;SDS011;63773;42.282;22.782;2023-04-15T04:09:39;11.15;;;5.68;;
75195;SDS011;63773;42.282;22.782;2023-04-15T04:12:06;6.55;;;4.05;;
75195;SDS011;63773;42.282;22.782;2023-04-15T04:14:31;7.28;;;4.25;;
75195;SDS011;63773;42.282;22.782;2023-04-15T04:16:58;7.88;;;5.07;;
75195;SDS011;63773;42.282;22.782;2023-04-15T04:19:23;8.80;;;4.20;;
75195;SDS011;63773;42.282;22.782;2023-04-15T04:21:49;9.85;;;5.65;;
75195;SDS011;63773;42.282;22.782;2023-04-15T04:24:15;9.90;;;4.88;;
75195;SDS011;63773;42.282;22.782;2023-04-15T04:26:40;6.68;;;4.05;;
75195;SDS011;63773;42.282;22.782;2023-04-15T04:29:06;6.88;;;4.28;;
75195;SDS011;63773;42.282;22.782;2023-04-15T04:31:32;7.82;;;4.80;;
75195;SDS011;63773;42.282;22.782;2023-04-15T04:33:57;9.02;;;5.47;;
75195;SDS011;63773;42.282;22.782;2023-04-15T04:36:22;8.68;;;5.00;;
75195;SDS011;63773;42.282;22.782;2023-04-15T04:38:48;10.45;;;5.15;;
75195;SDS011;63773;42.282;22.782;2023-04-15T04:41:13;8.63;;;5.13;;
75195;SDS011;63773;42.282;22.782;2023-04-15T04:43:39;8.52;;;4.22;;
75195;SDS011;63773;42.282;22.782;2023-04-15T04:46:04;6.97;;;3.85;;
75195;SDS011;63773;42.282;22.782;2023-04-15T04:48:29;6.35;;;3.60;;
75195;SDS011;63773;42.282;22.782;2023-04-15T04:50:55;7.28;;;3.63;;
75195;SDS011;63773;42.282;22.782;2023-04-15T04:53:20;7.38;;;2.22;;
75195;SDS011;63773;42.282;22.782;2023-04-15T04:55:46;7.60;;;3.85;;
75195;SDS011;63773;42.282;22.782;2023-04-15T04:58:11;4.95;;;2.85;;
75195;SDS011;63773;42.282;22.782;2023-04-15T05:00:37;6.28;;;3.38;;
75195;SDS011;63773;42.282;22.782;2023-04-15T05:03:03;8.30;;;3.65;;
75195;SDS011;63773;42.282;22.782;2023-04-15T05:05:28;6.28;;;3.30;;
75195;SDS011;63773;42.282;22.782;2023-04-15T05:07:54;5.63;;;3.35;;
75195;SDS011;63773;42.282;22.782;2023-04-15T05:10:19;6.43;;;3.78;;
75195;SDS011;63773;42.282;22.782;2023-04-15T05:12:45;5.82;;;3.67;;
75195;SDS011;63773;42.282;22.782;2023-04-15T05:15:10;6.00;;;4.28;;
75195;SDS011;63773;42.282;22.782;2023-04-15T05:17:36;6.88;;;3.75;;
75195;SDS011;63773;42.282;22.782;2023-04-15T05:20:02;7.80;;;4.03;;
75195;SDS011;63773;42.282;22.782;2023-04-15T05:22:27;9.45;;;4.72;;
75195;SDS011;63773;42.282;22.782;2023-04-15T05:24:53;7.45;;;4.43;;
75195;SDS011;63773;42.282;22.782;2023-04-15T05:27:18;7.80;;;5.25;;
75195;SDS011;63773;42.282;22.782;2023-04-15T05:29:44;9.55;;;4.30;;
75195;SDS011;63773;42.282;22.782;2023-04-15T05:32:10;6.65;;;3.58;;
75195;SDS011;63773;42.282;22.782;2023-04-15T05:34:36;9.55;;;4.90;;
75195;SDS011;63773;42.282;22.782;2023-04-15T05:37:01;8.50;;;4.18;;
75195;SDS011;63773;42.282;22.782;2023-04-15T05:39:27;8.68;;;4.72;;
75195;SDS011;63773;42.282;22.782;2023-04-15T05:41:52;15.40;;;5.13;;
75195;SDS011;63773;42.282;22.782;2023-04-15T05:44:18;9.68;;;5.10;;
75195;SDS011;63773;42.282;22.782;2023-04-15T05:46:43;7.05;;;3.28;;
75195;SDS011;63773;42.282;22.782;2023-04-15T05:49:08;5.63;;;2.60;;
75195;SDS011;63773;42.282;22.782;2023-04-15T05:51:34;5.00;;;2.00;;
75195;SDS011;63773;42.282;22.782;2023-04-15T05:54:00;5.03;;;2.80;;
75195;SDS011;63773;42.282;22.782;2023-04-15T05:56:25;6.40;;;3.05;;
75195;SDS011;63773;42.282;22.782;2023-04-15T05:58:51;6.90;;;3.25;;
75195;SDS011;63773;42.282;22.782;2023-04-15T06:01:17;5.05;;;2.78;;
75195;SDS011;63773;42.282;22.782;2023-04-15T06:03:42;5.50;;;2.35;;
75195;SDS011;63773;42.282;22.782;2023-04-15T06:06:08;3.88;;;2.63;;
75195;SDS011;63773;42.282;22.782;2023-04-15T06:08:34;5.10;;;2.60;;
75195;SDS011;63773;42.282;22.782;2023-04-15T06:10:59;4.82;;;2.42;;
75195;SDS011;63773;42.282;22.782;2023-04-15T06:13:25;5.53;;;2.38;;
75195;SDS011;63773;42.282;22.782;2023-04-15T06:15:51;5.28;;;2.47;;
75195;SDS011;63773;42.282;22.782;2023-04-15T06:18:17;3.88;;;2.40;;
75195;SDS011;63773;42.282;22.782;2023-04-15T06:20:44;4.15;;;2.10;;
75195;SDS011;63773;42.282;22.782;2023-04-15T06:23:10;4.43;;;2.72;;
75195;SDS011;63773;42.282;22.782;2023-04-15T06:25:36;5.28;;;2.90;;
75195;SDS011;63773;42.282;22.782;2023-04-15T06:28:01;6.05;;;3.08;;
75195;SDS011;63773;42.282;22.782;2023-04-15T06:30:27;7.30;;;3.55;;
75195;SDS011;63773;42.282;22.782;2023-04-15T06:32:52;4.68;;;2.55;;
75195;SDS011;63773;42.282;22.782;2023-04-15T06:35:19;5.28;;;2.70;;
75195;SDS011;63773;42.282;22.782;2023-04-15T06:37:44;6.57;;;3.03;;
75195;SDS011;63773;42.282;22.782;2023-04-15T06:40:10;5.85;;;3.17;;
75195;SDS011;63773;42.282;22.782;2023-04-15T06:42:36;5.90;;;3.22;;
75195;SDS011;63773;42.282;22.782;2023-04-15T06:45:02;5.70;;;3.30;;
75195;SDS011;63773;42.282;22.782;2023-04-15T06:47:28;6.53;;;3.60;;
75195;SDS011;63773;42.282;22.782;2023-04-15T06:49:53;5.90;;;3.50;;
75195;SDS011;63773;42.282;22.782;2023-04-15T06:52:18;6.43;;;2.63;;
75195;SDS011;63773;42.282;22.782;2023-04-15T06:54:44;5.43;;;3.05;;
75195;SDS011;63773;42.282;22.782;2023-04-15T06:57:09;5.53;;;3.22;;
75195;SDS011;63773;42.282;22.782;2023-04-15T06:59:35;6.32;;;2.65;;
75195;SDS011;63773;42.282;22.782;2023-04-15T07:02:00;6.85;;;3.00;;
75195;SDS011;63773;42.282;22.782;2023-04-15T07:04:26;4.68;;;2.53;;
75195;SDS011;63773;42.282;22.782;2023-04-15T07:06:52;4.03;;;2.75;;
75195;SDS011;63773;42.282;22.782;2023-04-15T07:11:45;4.60;;;2.28;;
75195;SDS011;63773;42.282;22.782;2023-04-15T07:14:12;4.28;;;1.75;;
75195;SDS011;63773;42.282;22.782;2023-04-15T07:16:38;6.38;;;2.85;;
75195;SDS011;63773;42.282;22.782;2023-04-15T07:19:03;3.95;;;2.22;;
75195;SDS011;63773;42.282;22.782;2023-04-15T07:21:29;5.05;;;2.28;;
75195;SDS011;63773;42.282;22.782;2023-04-15T07:23:54;4.07;;;2.13;;
75195;SDS011;63773;42.282;22.782;2023-04-15T07:26:19;5.07;;;3.20;;
75195;SDS011;63773;42.282;22.782;2023-04-15T07:28:45;5.90;;;2.28;;
75195;SDS011;63773;42.282;22.782;2023-04-15T07:31:11;8.23;;;3.58;;
75195;SDS011;63773;42.282;22.782;2023-04-15T07:33:37;4.50;;;2.00;;
75195;SDS011;63773;42.282;22.782;2023-04-15T07:36:02;4.35;;;2.15;;
75195;SDS011;63773;42.282;22.782;2023-04-15T07:38:28;4.28;;;2.05;;
75195;SDS011;63773;42.282;22.782;2023-04-15T07:40:54;4.07;;;1.98;;
75195;SDS011;63773;42.282;22.782;2023-04-15T07:43:20;3.08;;;1.58;;
75195;SDS011;63773;42.282;22.782;2023-04-15T07:45:46;3.65;;;1.65;;
75195;SDS011;63773;42.282;22.782;2023-04-15T07:48:11;3.05;;;1.48;;
75195;SDS011;63773;42.282;22.782;2023-04-15T07:50:36;3.88;;;0.98;;
75195;SDS011;63773;42.282;22.782;2023-04-15T07:53:02;3.00;;;1.30;;
75195;SDS011;63773;42.282;22.782;2023-04-15T07:55:27;4.65;;;1.65;;
75195;SDS011;63773;42.282;22.782;2023-04-15T07:57:54;1.83;;;0.98;;
75195;SDS011;63773;42.282;22.782;2023-04-15T08:00:20;2.90;;;1.55;;
75195;SDS011;63773;42.282;22.782;2023-04-15T08:02:46;2.75;;;0.80;;
75195;SDS011;63773;42.282;22.782;2023-04-15T08:05:12;3.05;;;1.00;;
75195;SDS011;63773;42.282;22.782;2023-04-15T08:07:38;3.97;;;1.33;;
75195;SDS011;63773;42.282;22.782;2023-04-15T08:10:05;3.72;;;1.05;;
75195;SDS011;63773;42.282;22.782;2023-04-15T08:12:31;2.75;;;0.70;;
75195;SDS011;63773;42.282;22.782;2023-04-15T08:14:56;3.83;;;0.73;;
75195;SDS011;63773;42.282;22.782;2023-04-15T08:17:22;3.78;;;0.73;;
75195;SDS011;63773;42.282;22.782;2023-04-15T08:19:48;2.35;;;1.05;;
75195;SDS011;63773;42.282;22.782;2023-04-15T08:22:13;1.98;;;0.80;;
75195;SDS011;63773;42.282;22.782;2023-04-15T08:24:39;3.50;;;1.48;;
75195;SDS011;63773;42.282;22.782;2023-04-15T08:27:05;7.53;;;1.40;;
75195;SDS011;63773;42.282;22.782;2023-04-15T08:29:32;2.50;;;0.63;;
75195;SDS011;63773;42.282;22.782;2023-04-15T08:31:58;2.63;;;0.73;;
75195;SDS011;63773;42.282;22.782;2023-04-15T08:34:25;2.60;;;0.60;;
75195;SDS011;63773;42.282;22.782;2023-04-15T08:36:51;3.42;;;1.02;;
75195;SDS011;63773;42.282;22.782;2023-04-15T08:39:16;3.45;;;0.90;;
75195;SDS011;63773;42.282;22.782;2023-04-15T08:41:55;3.83;;;1.33;;
75195;SDS011;63773;42.282;22.782;2023-04-15T08:44:25;6.90;;;1.73;;
75195;SDS011;63773;42.282;22.782;2023-04-15T08:46:55;6.43;;;2.38;;
75195;SDS011;63773;42.282;22.782;2023-04-15T08:49:24;4.05;;;1.80;;
75195;SDS011;63773;42.282;22.782;2023-04-15T08:51:51;4.07;;;0.90;;
75195;SDS011;63773;42.282;22.782;2023-04-15T08:54:17;5.63;;;2.40;;
75195;SDS011;63773;42.282;22.782;2023-04-15T08:56:42;2.63;;;0.90;;
75195;SDS011;63773;42.282;22.782;2023-04-15T08:59:08;2.60;;;1.10;;
75195;SDS011;63773;42.282;22.782;2023-04-15T09:01:36;4.88;;;1.23;;
75195;SDS011;63773;42.282;22.782;2023-04-15T09:04:02;2.15;;;0.63;;
75195;SDS011;63773;42.282;22.782;2023-04-15T09:06:31;3.88;;;2.70;;
75195;SDS011;63773;42.282;22.782;2023-04-15T09:08:57;1.92;;;0.75;;
75195;SDS011;63773;42.282;22.782;2023-04-15T09:11:22;2.95;;;1.00;;
75195;SDS011;63773;42.282;22.782;2023-04-15T09:13:49;1.77;;;0.30;;
75195;SDS011;63773;42.282;22.782;2023-04-15T09:16:14;1.15;;;0.30;;
75195;SDS011;63773;42.282;22.782;2023-04-15T09:18:40;2.13;;;0.40;;
75195;SDS011;63773;42.282;22.782;2023-04-15T09:23:35;2.53;;;0.82;;
75195;SDS011;63773;42.282;22.782;2023-04-15T09:26:03;1.65;;;0.40;;
75195;SDS011;63773;42.282;22.782;2023-04-15T09:28:29;3.03;;;0.82;;
75195;SDS011;63773;42.282;22.782;2023-04-15T09:30:59;2.25;;;0.30;;
75195;SDS011;63773;42.282;22.782;2023-04-15T09:33:26;1.52;;;0.63;;
75195;SDS011;63773;42.282;22.782;2023-04-15T09:38:31;4.30;;;0.40;;
75195;SDS011;63773;42.282;22.782;2023-04-15T09:40:57;1.63;;;0.30;;
75195;SDS011;63773;42.282;22.782;2023-04-15T09:43:36;1.58;;;0.40;;
75195;SDS011;63773;42.282;22.782;2023-04-15T09:46:04;2.75;;;0.60;;
75195;SDS011;63773;42.282;22.782;2023-04-15T09:48:30;2.10;;;0.40;;
75195;SDS011;63773;42.282;22.782;2023-04-15T09:50:59;2.80;;;0.43;;
75195;SDS011;63773;42.282;22.782;2023-04-15T09:53:26;4.32;;;1.13;;
75195;SDS011;63773;42.282;22.782;2023-04-15T09:55:55;2.80;;;0.82;;
75195;SDS011;63773;42.282;22.782;2023-04-15T09:58:23;2.03;;;0.45;;
75195;SDS011;63773;42.282;22.782;2023-04-15T10:00:50;3.55;;;0.73;;
75195;SDS011;63773;42.282;22.782;2023-04-15T10:03:21;3.55;;;2.17;;
75195;SDS011;63773;42.282;22.782;2023-04-15T10:05:59;5.45;;;0.98;;
75195;SDS011;63773;42.282;22.782;2023-04-15T10:08:29;1.73;;;0.30;;
75195;SDS011;63773;42.282;22.782;2023-04-15T10:10:57;3.80;;;0.30;;
75195;SDS011;63773;42.282;22.782;2023-04-15T10:13:24;2.17;;;1.10;;
75195;SDS011;63773;42.282;22.782;2023-04-15T10:15:51;1.58;;;0.70;;
75195;SDS011;63773;42.282;22.782;2023-04-15T10:18:25;2.38;;;1.27;;
75195;SDS011;63773;42.282;22.782;2023-04-15T10:20:52;2.03;;;0.70;;
75195;SDS011;63773;42.282;22.782;2023-04-15T10:23:18;2.42;;;0.70;;
75195;SDS011;63773;42.282;22.782;2023-04-15T10:25:45;3.40;;;1.40;;
75195;SDS011;63773;42.282;22.782;2023-04-15T10:28:10;6.05;;;1.60;;
75195;SDS011;63773;42.282;22.782;2023-04-15T10:30:36;3.63;;;1.00;;
75195;SDS011;63773;42.282;22.782;2023-04-15T10:33:03;2.72;;;0.50;;
75195;SDS011;63773;42.282;22.782;2023-04-15T10:35:30;1.13;;;0.28;;
75195;SDS011;63773;42.282;22.782;2023-04-15T10:37:58;3.17;;;0.55;;
75195;SDS011;63773;42.282;22.782;2023-04-15T10:42:52;10.43;;;4.97;;
75195;SDS011;63773;42.282;22.782;2023-04-15T10:45:18;4.03;;;1.92;;
75195;SDS011;63773;42.282;22.782;2023-04-15T10:47:43;4.80;;;1.13;;
75195;SDS011;63773;42.282;22.782;2023-04-15T10:50:09;3.33;;;0.60;;
75195;SDS011;63773;42.282;22.782;2023-04-15T10:52:36;5.13;;;1.73;;
75195;SDS011;63773;42.282;22.782;2023-04-15T10:55:15;4.85;;;1.38;;
75195;SDS011;63773;42.282;22.782;2023-04-15T10:57:44;1.25;;;0.50;;
75195;SDS011;63773;42.282;22.782;2023-04-15T11:00:10;4.15;;;0.68;;
75195;SDS011;63773;42.282;22.782;2023-04-15T11:02:46;5.20;;;1.63;;
75195;SDS011;63773;42.282;22.782;2023-04-15T11:05:13;2.80;;;1.13;;
75195;SDS011;63773;42.282;22.782;2023-04-15T11:12:41;2.88;;;1.00;;
75195;SDS011;63773;42.282;22.782;2023-04-15T11:15:24;2.35;;;0.98;;
75195;SDS011;63773;42.282;22.782;2023-04-15T11:17:51;1.15;;;0.50;;
75195;SDS011;63773;42.282;22.782;2023-04-15T11:20:17;1.73;;;0.30;;
75195;SDS011;63773;42.282;22.782;2023-04-15T11:22:46;6.05;;;1.00;;
75195;SDS011;63773;42.282;22.782;2023-04-15T11:25:26;3.15;;;0.40;;
75195;SDS011;63773;42.282;22.782;2023-04-15T11:27:53;2.30;;;0.40;;
75195;SDS011;63773;42.282;22.782;2023-04-15T11:30:20;1.95;;;0.50;;
75195;SDS011;63773;42.282;22.782;2023-04-15T11:32:47;1.13;;;0.30;;
75195;SDS011;63773;42.282;22.782;2023-04-15T11:35:15;1.20;;;0.20;;
75195;SDS011;63773;42.282;22.782;2023-04-15T11:40:07;2.03;;;0.45;;
75195;SDS011;63773;42.282;22.782;2023-04-15T11:42:33;2.83;;;0.22;;
75195;SDS011;63773;42.282;22.782;2023-04-15T11:45:14;1.92;;;0.50;;
75195;SDS011;63773;42.282;22.782;2023-04-15T11:47:40;2.17;;;0.45;;
75195;SDS011;63773;42.282;22.782;2023-04-15T11:50:22;2.28;;;0.40;;
75195;SDS011;63773;42.282;22.782;2023-04-15T11:52:54;3.17;;;0.50;;
75195;SDS011;63773;42.282;22.782;2023-04-15T11:55:20;1.60;;;0.43;;
75195;SDS011;63773;42.282;22.782;2023-04-15T11:57:48;3.25;;;0.75;;
75195;SDS011;63773;42.282;22.782;2023-04-15T12:00:15;1.88;;;0.50;;
75195;SDS011;63773;42.282;22.782;2023-04-15T12:02:41;1.70;;;0.40;;
75195;SDS011;63773;42.282;22.782;2023-04-15T12:05:07;3.22;;;0.50;;
75195;SDS011;63773;42.282;22.782;2023-04-15T12:07:56;2.05;;;0.55;;
75195;SDS011;63773;42.282;22.782;2023-04-15T12:10:25;4.60;;;1.00;;
75195;SDS011;63773;42.282;22.782;2023-04-15T12:12:53;2.72;;;0.73;;
75195;SDS011;63773;42.282;22.782;2023-04-15T12:15:22;4.38;;;0.77;;
75195;SDS011;63773;42.282;22.782;2023-04-15T12:17:48;3.78;;;0.65;;
75195;SDS011;63773;42.282;22.782;2023-04-15T12:20:24;3.20;;;0.77;;
75195;SDS011;63773;42.282;22.782;2023-04-15T12:22:50;3.05;;;0.80;;
75195;SDS011;63773;42.282;22.782;2023-04-15T12:25:15;7.05;;;1.30;;
75195;SDS011;63773;42.282;22.782;2023-04-15T12:27:40;4.97;;;1.60;;
75195;SDS011;63773;42.282;22.782;2023-04-15T12:30:06;2.28;;;0.77;;
75195;SDS011;63773;42.282;22.782;2023-04-15T12:32:36;1.73;;;0.93;;
75195;SDS011;63773;42.282;22.782;2023-04-15T12:35:01;3.13;;;1.10;;
75195;SDS011;63773;42.282;22.782;2023-04-15T12:37:46;2.42;;;0.70;;
75195;SDS011;63773;42.282;22.782;2023-04-15T12:40:12;1.20;;;0.40;;
75195;SDS011;63773;42.282;22.782;2023-04-15T12:42:37;1.52;;;0.80;;
75195;SDS011;63773;42.282;22.782;2023-04-15T12:45:03;2.13;;;0.77;;
75195;SDS011;63773;42.282;22.782;2023-04-15T12:47:29;2.50;;;0.65;;
75195;SDS011;63773;42.282;22.782;2023-04-15T12:49:54;2.45;;;0.43;;
75195;SDS011;63773;42.282;22.782;2023-04-15T12:52:20;2.75;;;0.50;;
75195;SDS011;63773;42.282;22.782;2023-04-15T12:54:46;1.77;;;0.65;;
75195;SDS011;63773;42.282;22.782;2023-04-15T12:57:11;2.92;;;0.90;;
75195;SDS011;63773;42.282;22.782;2023-04-15T12:59:36;3.17;;;0.65;;
75195;SDS011;63773;42.282;22.782;2023-04-15T13:02:02;2.13;;;0.32;;
75195;SDS011;63773;42.282;22.782;2023-04-15T13:04:28;2.42;;;0.65;;
75195;SDS011;63773;42.282;22.782;2023-04-15T13:06:54;4.18;;;0.70;;
75195;SDS011;63773;42.282;22.782;2023-04-15T13:09:20;4.25;;;1.13;;
75195;SDS011;63773;42.282;22.782;2023-04-15T13:11:45;4.95;;;1.70;;
75195;SDS011;63773;42.282;22.782;2023-04-15T13:14:11;7.07;;;2.83;;
75195;SDS011;63773;42.282;22.782;2023-04-15T13:16:37;1.67;;;0.80;;
75195;SDS011;63773;42.282;22.782;2023-04-15T13:19:02;2.00;;;0.52;;
75195;SDS011;63773;42.282;22.782;2023-04-15T13:21:28;1.75;;;0.40;;
75195;SDS011;63773;42.282;22.782;2023-04-15T13:28:46;0.90;;;0.30;;
75195;SDS011;63773;42.282;22.782;2023-04-15T13:31:11;3.08;;;0.88;;
75195;SDS011;63773;42.282;22.782;2023-04-15T13:33:37;2.00;;;0.32;;
75195;SDS011;63773;42.282;22.782;2023-04-15T13:36:02;1.52;;;0.63;;
75195;SDS011;63773;42.282;22.782;2023-04-15T13:38:28;3.10;;;0.70;;
75195;SDS011;63773;42.282;22.782;2023-04-15T13:40:53;2.47;;;0.47;;
75195;SDS011;63773;42.282;22.782;2023-04-15T13:43:19;2.58;;;0.43;;
75195;SDS011;63773;42.282;22.782;2023-04-15T13:45:45;3.20;;;0.80;;
75195;SDS011;63773;42.282;22.782;2023-04-15T13:48:11;3.08;;;0.47;;
75195;SDS011;63773;42.282;22.782;2023-04-15T13:50:36;3.55;;;0.60;;
75195;SDS011;63773;42.282;22.782;2023-04-15T13:53:02;3.13;;;1.10;;
75195;SDS011;63773;42.282;22.782;2023-04-15T13:55:27;4.10;;;0.85;;
75195;SDS011;63773;42.282;22.782;2023-04-15T13:57:52;4.18;;;0.60;;
75195;SDS011;63773;42.282;22.782;2023-04-15T14:00:18;3.75;;;0.45;;
75195;SDS011;63773;42.282;22.782;2023-04-15T14:02:43;4.40;;;0.50;;
75195;SDS011;63773;42.282;22.782;2023-04-15T14:05:09;2.60;;;0.65;;
75195;SDS011;63773;42.282;22.782;2023-04-15T14:07:35;2.50;;;0.65;;
75195;SDS011;63773;42.282;22.782;2023-04-15T14:10:00;2.35;;;0.65;;
75195;SDS011;63773;42.282;22.782;2023-04-15T14:12:26;3.08;;;0.88;;
75195;SDS011;63773;42.282;22.782;2023-04-15T14:14:51;2.47;;;0.52;;
75195;SDS011;63773;42.282;22.782;2023-04-15T14:17:17;5.03;;;1.73;;
75195;SDS011;63773;42.282;22.782;2023-04-15T14:19:42;5.20;;;1.45;;
75195;SDS011;63773;42.282;22.782;2023-04-15T14:22:08;2.53;;;0.98;;
75195;SDS011;63773;42.282;22.782;2023-04-15T14:24:33;2.13;;;0.60;;
75195;SDS011;63773;42.282;22.782;2023-04-15T14:26:59;3.40;;;0.63;;
75195;SDS011;63773;42.282;22.782;2023-04-15T14:29:26;1.70;;;0.43;;
75195;SDS011;63773;42.282;22.782;2023-04-15T14:31:52;1.10;;;0.40;;
75195;SDS011;63773;42.282;22.782;2023-04-15T14:34:17;2.78;;;0.85;;
75195;SDS011;63773;42.282;22.782;2023-04-15T14:36:43;4.28;;;0.60;;
75195;SDS011;63773;42.282;22.782;2023-04-15T14:39:09;3.47;;;0.98;;
75195;SDS011;63773;42.282;22.782;2023-04-15T14:41:35;3.05;;;0.80;;
75195;SDS011;63773;42.282;22.782;2023-04-15T14:44:00;3.08;;;0.60;;
75195;SDS011;63773;42.282;22.782;2023-04-15T14:46:26;3.47;;;0.80;;
75195;SDS011;63773;42.282;22.782;2023-04-15T14:48:54;1.48;;;0.40;;
75195;SDS011;63773;42.282;22.782;2023-04-15T14:51:20;2.45;;;0.80;;